Time;durP1;ratioP1;P1;durP2;ratioP2;P2;SDS_P1;SDS_P2;PMS_P1;PMS_P2;Temp;Humidity;BMP_temperature;BMP_pressure;BME280_temperature;BME280_humidity;BME280_pressure;Samples;Min_cycle;Max_cycle;Signal;HPM_P1;HPM_P2
2022/10/24 00:00:01;;;;;;;8.30;7.90;;;19.00;28.10;;;;;;5050561;28;20207;-58
2022/10/24 00:02:26;;;;;;;8.10;7.80;;;19.00;28.20;;;;;;5050069;28;20210;-57
2022/10/24 00:04:52;;;;;;;7.90;7.60;;;18.90;28.10;;;;;;5050370;28;20398;-58
2022/10/24 00:07:18;;;;;;;8.77;8.27;;;18.90;28.10;;;;;;5052191;28;20180;-57
2022/10/24 00:09:43;;;;;;;7.40;7.20;;;18.90;28.40;;;;;;5049886;28;20180;-57
2022/10/24 00:12:09;;;;;;;7.60;7.30;;;18.90;28.30;;;;;;5051367;28;20518;-57
2022/10/24 00:14:36;;;;;;;7.23;6.97;;;18.90;28.40;;;;;;5049992;28;20273;-58
2022/10/24 00:17:02;;;;;;;13.63;8.77;;;18.90;28.40;;;;;;5049567;28;20172;-58
2022/10/24 00:19:27;;;;;;;8.47;7.87;;;18.80;28.50;;;;;;5048516;28;20453;-56
2022/10/24 00:21:53;;;;;;;9.10;8.30;;;18.80;28.50;;;;;;5049879;28;20954;-56
2022/10/24 00:24:19;;;;;;;9.00;8.63;;;18.80;28.70;;;;;;5049600;28;20206;-57
2022/10/24 00:26:44;;;;;;;8.80;8.30;;;18.80;28.90;;;;;;5050870;28;20180;-57
2022/10/24 00:29:10;;;;;;;9.13;8.63;;;18.70;28.90;;;;;;5051044;28;20196;-57
2022/10/24 00:31:36;;;;;;;8.50;8.10;;;18.70;29.10;;;;;;5050533;28;20183;-57
2022/10/24 00:34:02;;;;;;;8.80;8.40;;;18.70;29.10;;;;;;5048866;28;20180;-57
2022/10/24 00:36:28;;;;;;;8.73;8.03;;;18.70;29.10;;;;;;5049062;28;20418;-55
2022/10/24 00:38:54;;;;;;;8.13;7.73;;;18.70;29.10;;;;;;5047361;28;20415;-56
2022/10/24 00:41:23;;;;;;;9.60;8.67;;;18.60;29.60;;;;;;5050750;28;20180;-57
2022/10/24 00:43:49;;;;;;;8.00;7.50;;;18.60;29.00;;;;;;5050272;28;20904;-57
2022/10/24 00:46:18;;;;;;;10.17;9.50;;;18.60;29.10;;;;;;5049137;28;20472;-57
2022/10/24 00:48:51;;;;;;;8.43;8.00;;;18.60;29.00;;;;;;5048145;28;20414;-55
2022/10/24 00:51:26;;;;;;;8.77;8.47;;;18.60;29.00;;;;;;5048469;28;20539;-57
2022/10/24 00:53:59;;;;;;;9.80;8.80;;;18.60;29.20;;;;;;5049273;28;20422;-56
2022/10/24 00:56:29;;;;;;;9.03;8.40;;;18.50;29.00;;;;;;5048165;28;20422;-57
2022/10/24 00:58:58;;;;;;;8.30;7.90;;;18.50;29.00;;;;;;5048653;28;20419;-57
2022/10/24 01:01:25;;;;;;;8.60;8.10;;;18.50;29.20;;;;;;5047010;28;20844;-56
2022/10/24 01:03:50;;;;;;;8.50;8.03;;;18.50;29.40;;;;;;5048218;28;20637;-57
2022/10/24 01:06:30;;;;;;;8.33;7.97;;;18.50;29.40;;;;;;5048741;28;20869;-57
2022/10/24 01:09:34;;;;;;;9.33;8.90;;;18.50;29.40;;;;;;5048691;28;20422;-57
2022/10/24 01:12:20;;;;;;;9.70;9.00;;;18.50;29.50;;;;;;5043160;28;20430;-57
2022/10/24 01:14:53;;;;;;;9.60;8.80;;;18.50;29.70;;;;;;5047382;28;20466;-57
2022/10/24 01:17:27;;;;;;;9.37;8.57;;;18.50;29.70;;;;;;5049544;28;20794;-56
2022/10/24 01:20:25;;;;;;;9.27;8.70;;;18.40;29.70;;;;;;5048769;28;20756;-56
2022/10/24 01:23:21;;;;;;;9.70;8.90;;;18.40;29.50;;;;;;5046020;28;20445;-56
2022/10/24 01:26:06;;;;;;;9.00;8.40;;;18.40;29.60;;;;;;5049964;28;20472;-56
2022/10/24 01:28:40;;;;;;;9.10;8.30;;;18.40;29.70;;;;;;5047729;28;20453;-56
2022/10/24 01:31:16;;;;;;;9.10;8.70;;;18.40;29.70;;;;;;5046035;28;20449;-57
2022/10/24 01:33:50;;;;;;;9.43;8.67;;;18.40;30.20;;;;;;5045384;28;20831;-57
2022/10/24 01:36:25;;;;;;;9.20;8.70;;;18.40;29.60;;;;;;5048372;28;20425;-57
2022/10/24 01:38:59;;;;;;;8.80;8.30;;;18.40;29.60;;;;;;5048643;28;20410;-56
2022/10/24 01:41:28;;;;;;;9.07;8.57;;;18.40;29.80;;;;;;5047505;28;20453;-56
2022/10/24 01:44:01;;;;;;;9.43;8.83;;;18.40;29.90;;;;;;5047877;28;20903;-55
2022/10/24 01:46:52;;;;;;;10.03;9.37;;;18.40;30.00;;;;;;5045969;28;20774;-57
2022/10/24 01:49:21;;;;;;;10.20;9.20;;;18.40;30.00;;;;;;5047532;28;20418;-57
2022/10/24 01:51:51;;;;;;;9.30;8.70;;;18.30;30.00;;;;;;5048200;28;20398;-57
2022/10/24 01:54:17;;;;;;;9.73;9.00;;;18.30;30.30;;;;;;5047163;28;20454;-56
2022/10/24 01:56:42;;;;;;;9.80;9.20;;;18.30;30.30;;;;;;5047083;28;20484;-57
2022/10/24 01:59:29;;;;;;;9.20;8.80;;;18.30;30.40;;;;;;5045790;28;20274;-57
2022/10/24 02:02:24;;;;;;;10.07;9.57;;;18.30;30.50;;;;;;5045609;28;20174;-59
2022/10/24 02:05:21;;;;;;;10.17;9.20;;;18.30;30.60;;;;;;5034040;28;20512;-57
2022/10/24 02:07:55;;;;;;;10.37;9.50;;;18.30;30.30;;;;;;5047996;28;20750;-56
2022/10/24 02:10:27;;;;;;;9.57;9.17;;;18.40;30.20;;;;;;5046145;28;20417;-55
2022/10/24 02:13:00;;;;;;;9.90;9.37;;;18.30;30.10;;;;;;5048073;28;20437;-56
2022/10/24 02:15:30;;;;;;;10.27;9.37;;;18.40;30.40;;;;;;5047400;28;20454;-56
2022/10/24 02:17:56;;;;;;;10.07;9.67;;;18.30;30.30;;;;;;5047607;28;20493;-55
2022/10/24 02:20:38;;;;;;;9.43;8.73;;;18.30;30.30;;;;;;5046985;28;20516;-56
2022/10/24 02:24:02;;;;;;;9.33;8.80;;;18.30;30.40;;;;;;5048334;28;20453;-58
2022/10/24 02:26:36;;;;;;;10.00;9.23;;;18.30;30.60;;;;;;5007175;28;20404;-58
2022/10/24 02:29:10;;;;;;;9.60;9.00;;;18.20;30.80;;;;;;5025163;28;20485;-58
2022/10/24 02:31:42;;;;;;;9.77;9.27;;;18.20;30.90;;;;;;5044348;28;20430;-58
2022/10/24 02:34:10;;;;;;;9.67;9.20;;;18.20;31.10;;;;;;5044238;28;20462;-58
2022/10/24 02:36:37;;;;;;;9.73;9.03;;;18.20;31.30;;;;;;5027756;28;20439;-58
2022/10/24 02:39:07;;;;;;;9.53;9.10;;;18.10;31.50;;;;;;5044890;28;20418;-57
2022/10/24 02:41:37;;;;;;;9.60;9.20;;;18.10;31.60;;;;;;5044503;28;20468;-58
2022/10/24 02:44:04;;;;;;;11.47;10.70;;;18.00;32.00;;;;;;5044614;28;20796;-58
2022/10/24 02:46:31;;;;;;;9.60;9.00;;;18.00;32.20;;;;;;5045806;28;20465;-58
2022/10/24 02:49:00;;;;;;;10.40;9.50;;;18.00;32.60;;;;;;5045844;28;21029;-57
2022/10/24 02:51:30;;;;;;;10.17;9.53;;;18.00;32.60;;;;;;5046345;28;20453;-58
2022/10/24 02:53:57;;;;;;;10.90;10.10;;;18.00;32.90;;;;;;5045149;28;20513;-58
2022/10/24 02:56:23;;;;;;;10.50;10.00;;;18.00;33.00;;;;;;5043299;28;20415;-58
2022/10/24 02:58:48;;;;;;;10.23;9.63;;;18.00;33.10;;;;;;5045518;28;20441;-58
2022/10/24 03:01:14;;;;;;;10.83;10.10;;;18.00;33.40;;;;;;5046252;28;20493;-58
2022/10/24 03:03:40;;;;;;;9.50;8.97;;;17.90;33.50;;;;;;5043904;28;20211;-58
2022/10/24 03:06:06;;;;;;;10.10;9.30;;;17.90;33.70;;;;;;5045725;28;20551;-58
2022/10/24 03:08:31;;;;;;;10.20;9.60;;;17.90;34.10;;;;;;5047208;28;20183;-59
2022/10/24 03:10:57;;;;;;;11.17;10.60;;;17.90;34.00;;;;;;5044616;28;20924;-60
2022/10/24 03:13:23;;;;;;;10.93;10.00;;;17.90;34.30;;;;;;5045842;28;20180;-60
2022/10/24 03:15:48;;;;;;;10.10;9.70;;;17.90;34.60;;;;;;5047013;28;20223;-60
2022/10/24 03:18:14;;;;;;;10.10;9.70;;;17.90;34.80;;;;;;5047082;28;20241;-59
2022/10/24 03:20:39;;;;;;;10.30;9.80;;;17.90;35.00;;;;;;5046682;28;20188;-59
2022/10/24 03:23:06;;;;;;;10.83;10.23;;;17.90;35.30;;;;;;5047498;28;20207;-59
2022/10/24 03:25:32;;;;;;;10.70;10.00;;;17.90;35.50;;;;;;5048694;28;20180;-59
2022/10/24 03:27:58;;;;;;;11.37;10.67;;;17.90;35.70;;;;;;5048377;28;20418;-59
2022/10/24 03:30:24;;;;;;;11.03;10.50;;;17.90;35.80;;;;;;5048814;28;20878;-59
2022/10/24 03:32:49;;;;;;;11.23;10.47;;;17.90;35.80;;;;;;5050846;28;20180;-59
2022/10/24 03:35:15;;;;;;;11.57;10.77;;;18.00;35.90;;;;;;5049916;28;20215;-56
2022/10/24 03:37:41;;;;;;;11.00;10.23;;;18.00;35.80;;;;;;5048460;28;20180;-57
2022/10/24 03:40:09;;;;;;;11.67;10.77;;;18.00;35.90;;;;;;5047333;28;20421;-57
2022/10/24 03:42:35;;;;;;;10.87;10.07;;;18.10;35.80;;;;;;5048133;28;20457;-57
2022/10/24 03:45:00;;;;;;;10.10;9.50;;;18.10;35.70;;;;;;5046565;28;20847;-57
2022/10/24 03:47:26;;;;;;;10.20;9.60;;;18.10;35.70;;;;;;5047114;28;20469;-57
2022/10/24 03:49:52;;;;;;;10.63;10.03;;;18.10;35.90;;;;;;5048429;28;20188;-57
2022/10/24 03:52:18;;;;;;;9.87;9.53;;;18.00;36.00;;;;;;5050377;28;20184;-57
2022/10/24 03:54:43;;;;;;;10.30;9.87;;;18.00;36.10;;;;;;5048819;28;20208;-57
2022/10/24 03:57:09;;;;;;;10.17;9.37;;;18.00;36.40;;;;;;5051182;28;20548;-57
2022/10/24 03:59:36;;;;;;;11.30;10.67;;;18.00;36.70;;;;;;5049661;28;20187;-57
2022/10/24 04:02:02;;;;;;;11.60;10.40;;;18.00;36.80;;;;;;5048177;28;20180;-57
2022/10/24 04:04:28;;;;;;;11.63;10.83;;;18.00;37.20;;;;;;5049766;28;20500;-57
2022/10/24 04:06:53;;;;;;;11.27;10.77;;;17.90;37.70;;;;;;5047254;28;20422;-55
2022/10/24 04:09:19;;;;;;;12.80;11.90;;;17.80;38.00;;;;;;5049471;28;20428;-57
2022/10/24 04:11:46;;;;;;;11.40;10.63;;;17.80;38.30;;;;;;5051150;28;20187;-57
2022/10/24 04:14:12;;;;;;;11.63;10.90;;;17.80;38.30;;;;;;5047179;28;20468;-57
2022/10/24 04:16:37;;;;;;;12.00;11.13;;;17.70;38.80;;;;;;5042834;28;20415;-57
2022/10/24 04:19:03;;;;;;;10.73;10.23;;;17.60;39.30;;;;;;5032625;28;20420;-57
2022/10/24 04:21:29;;;;;;;11.60;10.90;;;17.60;39.70;;;;;;5048612;28;20184;-58
2022/10/24 04:23:55;;;;;;;11.13;10.17;;;17.50;39.90;;;;;;5053753;28;20414;-60
2022/10/24 04:26:21;;;;;;;10.93;10.27;;;17.50;40.30;;;;;;5052260;28;20278;-60
2022/10/24 04:28:47;;;;;;;12.10;11.10;;;17.50;40.50;;;;;;5053963;28;20506;-60
2022/10/24 04:31:13;;;;;;;11.90;10.80;;;17.40;40.20;;;;;;5053263;28;20188;-60
2022/10/24 04:33:39;;;;;;;15.63;10.20;;;17.50;40.40;;;;;;5052939;28;20206;-60
2022/10/24 04:36:05;;;;;;;11.67;10.93;;;17.40;40.40;;;;;;5053777;28;20493;-60
2022/10/24 04:38:31;;;;;;;11.80;10.73;;;17.50;40.20;;;;;;5052819;28;20190;-60
2022/10/24 04:40:56;;;;;;;11.43;10.73;;;17.50;40.10;;;;;;5052209;28;20199;-60
2022/10/24 04:43:24;;;;;;;11.33;10.67;;;17.50;40.10;;;;;;5052689;28;20544;-60
2022/10/24 04:45:50;;;;;;;10.50;9.90;;;17.40;39.90;;;;;;5052136;28;20237;-60
2022/10/24 04:48:16;;;;;;;11.77;11.03;;;17.50;40.00;;;;;;5053510;28;20410;-61
2022/10/24 04:50:43;;;;;;;11.10;10.43;;;17.40;40.00;;;;;;5039673;28;20199;-60
2022/10/24 04:53:09;;;;;;;12.07;10.93;;;17.40;39.90;;;;;;5034254;28;20212;-60
2022/10/24 04:55:35;;;;;;;10.40;9.90;;;17.40;40.10;;;;;;5050923;28;20531;-61
2022/10/24 04:58:02;;;;;;;10.60;9.90;;;17.40;40.00;;;;;;5052661;28;20932;-60
2022/10/24 05:00:28;;;;;;;12.33;9.63;;;17.40;40.10;;;;;;5051853;28;20429;-60
2022/10/24 05:02:54;;;;;;;11.80;10.73;;;17.50;40.20;;;;;;5052711;28;20418;-60
2022/10/24 05:05:20;;;;;;;11.63;11.00;;;17.50;40.10;;;;;;5051253;28;20414;-60
2022/10/24 05:07:46;;;;;;;13.37;11.90;;;17.50;39.90;;;;;;5050243;28;20215;-61
2022/10/24 05:10:13;;;;;;;12.23;11.13;;;17.40;40.10;;;;;;5050590;28;20512;-60
2022/10/24 05:12:38;;;;;;;11.37;10.60;;;17.40;39.70;;;;;;5049801;28;20423;-57
2022/10/24 05:15:05;;;;;;;11.50;10.70;;;17.50;39.70;;;;;;5051525;28;20480;-61
2022/10/24 05:17:31;;;;;;;10.77;10.23;;;17.50;39.40;;;;;;5050006;28;20184;-60
2022/10/24 05:19:57;;;;;;;11.83;10.80;;;17.50;38.80;;;;;;5052177;28;20465;-61
2022/10/24 05:22:22;;;;;;;11.50;10.90;;;17.60;38.20;;;;;;5051486;28;20431;-61
2022/10/24 05:24:48;;;;;;;11.90;11.20;;;17.60;37.70;;;;;;5048301;28;20192;-61
2022/10/24 05:27:15;;;;;;;12.30;11.40;;;17.70;36.90;;;;;;5050510;28;20184;-61
2022/10/24 05:29:40;;;;;;;11.27;10.67;;;17.80;36.20;;;;;;5052050;28;20465;-60
2022/10/24 05:32:06;;;;;;;11.27;10.67;;;17.90;35.70;;;;;;5049933;28;20415;-57
2022/10/24 05:34:32;;;;;;;11.03;10.23;;;18.00;36.50;;;;;;5050711;28;20227;-60
2022/10/24 05:36:58;;;;;;;12.40;10.90;;;18.00;37.40;;;;;;5045255;28;20687;-60
2022/10/24 05:39:23;;;;;;;11.07;10.47;;;18.00;38.40;;;;;;5039021;28;20505;-57
2022/10/24 05:41:49;;;;;;;11.13;10.73;;;18.00;37.80;;;;;;5050191;28;20275;-56
2022/10/24 05:44:15;;;;;;;11.00;10.50;;;17.90;39.50;;;;;;5051810;28;20230;-56
2022/10/24 05:46:40;;;;;;;11.50;10.00;;;17.90;38.40;;;;;;5049197;28;20188;-56
2022/10/24 05:49:06;;;;;;;10.83;10.17;;;17.90;40.40;;;;;;5049661;28;20182;-58
2022/10/24 05:51:32;;;;;;;11.67;11.00;;;17.90;39.40;;;;;;5048114;28;20636;-57
2022/10/24 05:53:58;;;;;;;11.30;10.40;;;17.90;40.40;;;;;;5047833;28;20422;-57
2022/10/24 05:56:24;;;;;;;10.27;9.87;;;17.90;40.60;;;;;;5047287;28;20423;-57
2022/10/24 05:58:50;;;;;;;12.77;11.70;;;17.90;39.80;;;;;;5027922;28;20415;-57
2022/10/24 06:01:16;;;;;;;11.20;10.40;;;17.80;39.80;;;;;;5043172;28;20965;-57
2022/10/24 06:03:42;;;;;;;10.47;9.97;;;17.80;39.40;;;;;;5050099;28;20176;-57
2022/10/24 06:06:09;;;;;;;11.30;10.30;;;17.80;39.60;;;;;;5047983;28;20503;-57
2022/10/24 06:08:36;;;;;;;10.57;9.57;;;17.80;43.90;;;;;;5046511;28;20621;-57
2022/10/24 06:11:03;;;;;;;10.03;9.20;;;17.50;46.30;;;;;;5048092;28;20422;-57
2022/10/24 06:13:28;;;;;;;11.17;10.27;;;17.10;47.80;;;;;;5048576;28;20427;-57
2022/10/24 06:15:54;;;;;;;10.63;9.70;;;17.10;47.90;;;;;;5047750;28;20480;-56
2022/10/24 06:18:20;;;;;;;12.03;9.03;;;16.90;50.40;;;;;;5047640;28;20191;-56
2022/10/24 06:20:45;;;;;;;8.27;7.53;;;16.90;49.80;;;;;;5045641;28;20191;-59
2022/10/24 06:23:11;;;;;;;9.20;8.33;;;16.80;49.70;;;;;;5046328;28;20176;-59
2022/10/24 06:25:40;;;;;;;9.20;7.90;;;16.80;50.10;;;;;;5048166;28;20184;-56
2022/10/24 06:28:06;;;;;;;8.23;7.90;;;16.80;50.10;;;;;;5047055;28;20188;-63
2022/10/24 06:30:33;;;;;;;8.43;7.80;;;16.80;50.80;;;;;;5045994;28;20442;-61
2022/10/24 06:32:59;;;;;;;8.17;7.77;;;16.90;51.80;;;;;;5044919;28;20830;-64
2022/10/24 06:35:24;;;;;;;8.37;7.77;;;16.90;50.40;;;;;;5044635;28;20466;-60
2022/10/24 06:37:50;;;;;;;12.43;8.97;;;16.80;50.80;;;;;;5046821;28;20662;-62
2022/10/24 06:40:16;;;;;;;8.77;8.20;;;16.80;50.20;;;;;;5046157;28;20547;-61
2022/10/24 06:42:43;;;;;;;8.00;7.50;;;16.80;50.70;;;;;;5048677;28;20180;-62
2022/10/24 06:45:09;;;;;;;8.30;7.67;;;16.80;52.40;;;;;;5046462;28;20548;-61
2022/10/24 06:47:35;;;;;;;8.37;7.80;;;16.80;51.30;;;;;;5049798;28;20414;-61
2022/10/24 06:50:00;;;;;;;8.30;7.70;;;16.80;51.40;;;;;;5042535;28;20515;-61
2022/10/24 06:52:27;;;;;;;8.40;7.63;;;16.80;52.00;;;;;;5041919;28;20284;-61
2022/10/24 06:54:52;;;;;;;8.00;7.40;;;16.90;52.00;;;;;;5043458;28;20246;-61
2022/10/24 06:57:18;;;;;;;8.17;7.23;;;17.00;53.10;;;;;;5044666;28;20446;-61
2022/10/24 06:59:44;;;;;;;7.30;7.00;;;17.00;53.20;;;;;;5046038;28;20176;-61
2022/10/24 07:02:13;;;;;;;8.90;8.20;;;17.10;53.40;;;;;;5044998;28;20399;-62
2022/10/24 07:04:39;;;;;;;8.83;8.00;;;17.10;52.60;;;;;;5046589;28;20241;-62
2022/10/24 07:07:04;;;;;;;7.93;7.63;;;17.20;53.50;;;;;;5046813;28;20423;-62
2022/10/24 07:09:30;;;;;;;10.10;8.33;;;17.10;52.90;;;;;;5046135;28;20179;-61
2022/10/24 07:11:56;;;;;;;9.37;7.47;;;17.00;53.20;;;;;;5045053;28;20214;-62
2022/10/24 07:14:21;;;;;;;8.87;8.03;;;16.90;54.00;;;;;;5045061;28;20668;-61
2022/10/24 07:16:47;;;;;;;7.87;7.37;;;16.90;54.00;;;;;;5045830;28;20207;-61
2022/10/24 07:19:13;;;;;;;7.83;7.33;;;16.90;54.60;;;;;;5045269;28;20179;-62
2022/10/24 07:21:39;;;;;;;9.30;8.40;;;16.80;54.40;;;;;;5043634;28;20180;-62
2022/10/24 07:24:05;;;;;;;8.30;7.50;;;16.90;54.90;;;;;;5046135;28;20414;-61
2022/10/24 07:26:31;;;;;;;8.27;7.63;;;17.00;54.80;;;;;;5045443;28;20643;-62
2022/10/24 07:28:59;;;;;;;8.40;7.57;;;17.00;55.00;;;;;;5045952;28;20425;-62
2022/10/24 07:31:28;;;;;;;8.03;7.53;;;17.00;55.10;;;;;;5042363;28;20500;-62
2022/10/24 07:33:54;;;;;;;8.07;7.53;;;17.10;54.80;;;;;;5046690;28;20418;-59
2022/10/24 07:36:23;;;;;;;8.30;7.70;;;17.20;54.50;;;;;;5045971;28;20567;-57
2022/10/24 07:38:51;;;;;;;9.00;8.10;;;17.20;55.70;;;;;;5045697;28;20411;-57
2022/10/24 07:41:17;;;;;;;9.43;8.70;;;17.20;55.60;;;;;;5046552;28;20415;-56
2022/10/24 07:43:44;;;;;;;8.90;8.33;;;17.20;55.40;;;;;;5047070;28;20419;-56
2022/10/24 07:46:12;;;;;;;8.87;8.33;;;17.10;54.20;;;;;;5048003;28;20426;-54
2022/10/24 07:48:38;;;;;;;9.30;8.80;;;16.90;53.80;;;;;;5049569;28;20820;-57
2022/10/24 07:51:09;;;;;;;9.07;8.37;;;16.80;55.00;;;;;;5049693;28;20443;-56
2022/10/24 07:53:34;;;;;;;8.70;7.83;;;16.80;55.80;;;;;;5052414;28;20467;-57
2022/10/24 07:56:01;;;;;;;17.57;8.50;;;16.80;55.80;;;;;;5049841;28;20857;-55
2022/10/24 07:58:27;;;;;;;8.67;7.63;;;16.90;54.80;;;;;;5050563;28;20548;-57
2022/10/24 08:00:52;;;;;;;8.83;8.20;;;16.80;54.10;;;;;;5050184;28;20441;-57
2022/10/24 08:03:18;;;;;;;8.57;7.93;;;16.80;52.50;;;;;;5049834;28;20406;-54
2022/10/24 08:05:44;;;;;;;7.97;7.27;;;16.70;51.70;;;;;;5048091;28;20188;-56
2022/10/24 08:08:09;;;;;;;8.57;8.07;;;16.60;52.00;;;;;;5048821;28;20658;-55
2022/10/24 08:10:35;;;;;;;7.80;7.40;;;16.60;52.30;;;;;;5048663;28;20183;-58
2022/10/24 08:13:02;;;;;;;7.73;7.13;;;16.60;52.10;;;;;;5050356;28;20242;-63
2022/10/24 08:15:28;;;;;;;7.77;7.40;;;16.60;51.00;;;;;;5049901;28;20462;-57
2022/10/24 08:17:54;;;;;;;8.23;7.20;;;16.60;52.00;;;;;;5048234;28;20428;-56
2022/10/24 08:20:20;;;;;;;6.80;6.50;;;16.60;51.80;;;;;;5048995;28;20184;-56
2022/10/24 08:22:46;;;;;;;8.13;7.67;;;16.60;51.40;;;;;;5047699;28;20417;-58
2022/10/24 08:25:13;;;;;;;9.03;8.17;;;16.70;50.80;;;;;;5049567;28;20903;-56
2022/10/24 08:27:40;;;;;;;7.33;6.73;;;16.60;51.80;;;;;;5048472;28;20187;-56
2022/10/24 08:30:06;;;;;;;6.63;6.33;;;16.60;51.90;;;;;;5051110;28;20438;-56
2022/10/24 08:32:32;;;;;;;7.23;6.60;;;16.60;51.90;;;;;;5048712;28;21052;-56
2022/10/24 08:34:58;;;;;;;7.20;6.87;;;16.60;51.80;;;;;;5049229;28;20466;-56
2022/10/24 08:37:23;;;;;;;7.20;6.70;;;16.60;51.80;;;;;;5048142;28;20429;-55
2022/10/24 08:39:49;;;;;;;7.50;6.90;;;16.60;52.30;;;;;;5047674;28;20191;-60
2022/10/24 08:42:17;;;;;;;8.00;7.30;;;16.60;52.30;;;;;;5049479;28;20229;-56
2022/10/24 08:44:44;;;;;;;7.73;7.30;;;16.60;52.90;;;;;;5047332;28;20589;-54
2022/10/24 08:47:16;;;;;;;7.53;7.03;;;16.60;53.40;;;;;;5047356;28;20422;-55
2022/10/24 08:50:04;;;;;;;7.70;7.30;;;16.60;52.80;;;;;;5047868;28;20431;-55
2022/10/24 08:52:56;;;;;;;9.37;8.30;;;16.50;52.30;;;;;;5047729;28;20423;-56
2022/10/24 08:55:37;;;;;;;8.83;8.00;;;16.60;52.80;;;;;;5048537;28;20536;-55
2022/10/24 08:58:04;;;;;;;8.20;7.57;;;16.50;53.00;;;;;;5045635;28;20433;-56
2022/10/24 09:00:42;;;;;;;7.57;7.17;;;16.50;53.00;;;;;;5046185;28;20433;-58
2022/10/24 09:03:27;;;;;;;7.40;7.07;;;16.50;53.30;;;;;;5045573;28;21363;-58
2022/10/24 09:05:57;;;;;;;7.37;6.70;;;16.50;52.70;;;;;;5046529;28;20423;-58
2022/10/24 09:08:52;;;;;;;6.50;6.10;;;16.50;53.50;;;;;;5045496;28;20418;-58
2022/10/24 09:11:44;;;;;;;7.50;6.93;;;16.50;53.60;;;;;;5046052;28;20941;-58
2022/10/24 09:14:13;;;;;;;7.97;7.23;;;16.50;53.30;;;;;;5043492;28;20415;-58
2022/10/24 09:16:42;;;;;;;7.67;7.10;;;16.50;53.30;;;;;;5049167;28;20421;-58
2022/10/24 09:19:20;;;;;;;7.80;7.23;;;16.50;53.50;;;;;;5046224;28;20425;-58
2022/10/24 09:21:47;;;;;;;7.40;6.80;;;16.50;52.90;;;;;;5045573;28;20425;-58
2022/10/24 09:24:40;;;;;;;7.43;7.03;;;16.50;53.00;;;;;;5045636;28;20414;-58
2022/10/24 09:27:30;;;;;;;6.40;6.10;;;16.50;52.50;;;;;;5046409;28;20843;-58
2022/10/24 09:29:57;;;;;;;7.47;6.93;;;16.50;53.40;;;;;;5045911;28;20927;-58
2022/10/24 09:32:29;;;;;;;7.63;6.93;;;16.50;53.00;;;;;;5047874;28;20493;-57
2022/10/24 09:35:04;;;;;;;7.63;6.60;;;16.50;53.10;;;;;;5049585;28;21085;-57
2022/10/24 09:37:36;;;;;;;9.30;7.30;;;16.50;53.40;;;;;;5046339;28;20418;-58
2022/10/24 09:40:16;;;;;;;8.27;6.90;;;16.60;53.50;;;;;;5048219;28;20414;-58
2022/10/24 09:43:15;;;;;;;7.27;6.83;;;16.60;53.60;;;;;;5033186;28;20530;-58
2022/10/24 09:46:00;;;;;;;8.33;7.20;;;16.60;53.70;;;;;;5028770;28;20518;-58
2022/10/24 09:48:43;;;;;;;7.30;6.87;;;16.60;53.40;;;;;;5028391;28;20427;-58
2022/10/24 09:51:35;;;;;;;7.07;6.77;;;16.60;54.20;;;;;;5026899;28;20510;-58
2022/10/24 09:54:09;;;;;;;7.80;7.10;;;16.60;54.10;;;;;;5028607;28;20795;-58
2022/10/24 09:56:40;;;;;;;7.40;6.90;;;16.50;54.20;;;;;;5025468;28;20422;-58
2022/10/24 09:59:25;;;;;;;7.47;7.00;;;16.60;54.50;;;;;;5026451;28;20540;-58
2022/10/24 10:01:50;;;;;;;7.13;6.73;;;16.50;54.30;;;;;;5028120;28;20419;-58
2022/10/24 10:04:18;;;;;;;7.33;6.83;;;16.60;54.30;;;;;;5027940;28;20419;-58
2022/10/24 10:06:49;;;;;;;7.30;6.90;;;16.60;54.20;;;;;;5027648;28;20279;-58
2022/10/24 10:09:30;;;;;;;7.13;6.50;;;16.60;53.90;;;;;;5030489;28;20470;-58
2022/10/24 10:11:58;;;;;;;7.17;6.77;;;16.60;54.30;;;;;;5027248;28;20449;-58
2022/10/24 10:14:27;;;;;;;7.97;7.57;;;16.60;53.70;;;;;;5027287;28;20422;-58
2022/10/24 10:17:05;;;;;;;8.50;6.80;;;16.60;53.40;;;;;;5028695;28;20725;-58
2022/10/24 10:19:36;;;;;;;8.43;7.67;;;16.60;53.60;;;;;;5028061;28;20419;-59
2022/10/24 10:22:26;;;;;;;8.20;7.70;;;16.60;52.40;;;;;;5027023;28;20415;-58
2022/10/24 10:24:53;;;;;;;8.77;8.00;;;16.70;51.60;;;;;;5028120;28;20481;-61
2022/10/24 10:27:26;;;;;;;7.50;7.20;;;16.70;51.40;;;;;;5027059;28;20418;-62
2022/10/24 10:30:10;;;;;;;8.30;8.00;;;16.80;50.70;;;;;;5026769;28;20508;-62
2022/10/24 10:33:10;;;;;;;8.70;8.10;;;16.80;50.90;;;;;;5028135;28;20423;-58
2022/10/24 10:35:48;;;;;;;8.17;7.77;;;16.90;50.00;;;;;;5028459;28;20466;-58
2022/10/24 10:38:16;;;;;;;8.97;8.33;;;16.90;50.00;;;;;;5028255;28;20912;-58
2022/10/24 10:41:14;;;;;;;8.60;8.20;;;16.90;48.00;;;;;;5027298;28;20476;-58
2022/10/24 10:44:10;;;;;;;8.27;7.90;;;17.00;47.80;;;;;;5038185;28;20628;-59
2022/10/24 10:46:58;;;;;;;8.13;7.53;;;17.00;46.90;;;;;;5026262;28;20963;-57
2022/10/24 10:49:31;;;;;;;8.23;7.83;;;17.10;47.80;;;;;;5027135;28;20411;-57
2022/10/24 10:52:13;;;;;;;8.10;7.60;;;17.10;47.50;;;;;;5026625;28;20411;-57
2022/10/24 10:54:58;;;;;;;9.10;8.47;;;17.10;47.20;;;;;;5027573;28;20470;-57
2022/10/24 10:57:44;;;;;;;9.10;8.50;;;17.10;46.30;;;;;;5026764;28;20451;-57
2022/10/24 11:00:23;;;;;;;8.67;8.30;;;17.10;46.70;;;;;;5026500;28;20419;-57
2022/10/24 11:03:21;;;;;;;9.87;9.30;;;17.10;45.70;;;;;;5025932;28;20834;-57
2022/10/24 11:05:56;;;;;;;9.83;8.67;;;17.10;44.80;;;;;;5027410;28;20415;-58
2022/10/24 11:08:49;;;;;;;8.93;8.53;;;17.10;44.30;;;;;;5028745;28;20407;-57
2022/10/24 11:11:26;;;;;;;8.67;8.33;;;17.10;44.20;;;;;;5025648;28;20462;-57
2022/10/24 11:14:10;;;;;;;8.70;8.20;;;17.10;44.50;;;;;;5026470;28;20419;-57
2022/10/24 11:16:38;;;;;;;9.33;8.73;;;17.10;44.20;;;;;;5027515;28;20415;-58
2022/10/24 11:19:11;;;;;;;9.13;8.70;;;17.10;43.70;;;;;;5027396;28;20474;-58
2022/10/24 11:21:39;;;;;;;8.20;7.63;;;17.10;43.20;;;;;;5025710;28;20498;-57
2022/10/24 11:24:16;;;;;;;8.40;7.90;;;17.10;43.40;;;;;;5026273;28;20408;-57
2022/10/24 11:26:52;;;;;;;7.83;7.53;;;17.10;43.20;;;;;;5027007;28;20510;-57
2022/10/24 11:29:28;;;;;;;8.90;8.40;;;17.10;42.90;;;;;;5025511;28;20411;-57
2022/10/24 11:32:00;;;;;;;8.60;8.13;;;17.10;43.00;;;;;;5027357;28;20419;-57
2022/10/24 11:34:41;;;;;;;8.40;8.10;;;17.10;43.10;;;;;;5063708;28;20401;-57
2022/10/24 11:37:14;;;;;;;7.40;7.10;;;17.10;42.80;;;;;;5063599;28;20415;-61
2022/10/24 11:39:44;;;;;;;7.30;7.10;;;17.10;42.90;;;;;;5065369;28;20940;-61
2022/10/24 11:42:40;;;;;;;8.10;7.60;;;17.10;43.00;;;;;;5067864;28;20410;-62
2022/10/24 11:45:10;;;;;;;8.17;7.77;;;17.10;43.30;;;;;;5065979;28;20514;-61
2022/10/24 11:48:10;;;;;;;9.07;8.57;;;17.10;43.10;;;;;;5064600;28;20440;-61
2022/10/24 11:50:57;;;;;;;8.20;7.90;;;17.10;43.50;;;;;;5065181;28;20421;-61
2022/10/24 11:53:32;;;;;;;9.10;8.80;;;17.10;43.50;;;;;;5063817;28;20879;-62
2022/10/24 11:56:23;;;;;;;7.87;7.57;;;17.20;43.60;;;;;;5065282;28;20452;-62
2022/10/24 11:59:00;;;;;;;8.80;8.30;;;17.20;43.40;;;;;;5063459;28;20409;-65
2022/10/24 12:01:36;;;;;;;8.70;8.30;;;17.20;43.60;;;;;;5064960;28;20409;-62
2022/10/24 12:04:39;;;;;;;8.50;8.20;;;17.20;43.50;;;;;;5064615;28;20861;-62
2022/10/24 12:07:24;;;;;;;8.47;8.20;;;17.20;43.60;;;;;;5064837;28;20460;-62
2022/10/24 12:09:49;;;;;;;8.30;8.07;;;17.20;43.40;;;;;;5065269;28;20466;-62
2022/10/24 12:12:34;;;;;;;8.27;7.97;;;17.20;43.60;;;;;;5065303;28;20413;-62
2022/10/24 12:15:15;;;;;;;9.43;8.70;;;17.20;43.80;;;;;;5064952;28;20310;-61
2022/10/24 12:17:50;;;;;;;9.00;8.70;;;17.20;43.70;;;;;;5063959;28;20409;-62
2022/10/24 12:20:22;;;;;;;9.00;8.60;;;17.20;43.40;;;;;;5065706;28;20409;-61
2022/10/24 12:22:49;;;;;;;9.40;9.00;;;17.30;43.40;;;;;;5045751;28;20778;-58
2022/10/24 12:25:19;;;;;;;9.00;8.53;;;17.30;44.10;;;;;;5026813;28;20407;-57
2022/10/24 12:27:56;;;;;;;9.57;9.07;;;17.30;43.30;;;;;;5025467;28;20429;-61
2022/10/24 12:30:23;;;;;;;9.33;8.60;;;17.30;43.50;;;;;;5027033;28;20442;-61
2022/10/24 12:33:06;;;;;;;8.73;8.37;;;17.30;43.20;;;;;;5029867;28;20585;-61
2022/10/24 12:35:45;;;;;;;9.37;8.87;;;17.30;42.90;;;;;;5030722;28;20891;-58
2022/10/24 12:38:37;;;;;;;9.40;8.83;;;17.30;43.00;;;;;;5032118;28;20469;-58
2022/10/24 12:41:32;;;;;;;8.90;8.43;;;17.30;43.00;;;;;;5039612;28;20415;-57
2022/10/24 12:44:36;;;;;;;8.73;8.43;;;17.30;42.90;;;;;;5030587;28;20419;-57
2022/10/24 12:47:23;;;;;;;9.23;8.83;;;17.30;42.30;;;;;;5030756;28;20408;-57
2022/10/24 12:49:49;;;;;;;8.80;8.60;;;17.30;42.50;;;;;;5028960;28;20892;-57
2022/10/24 12:52:44;;;;;;;9.37;8.97;;;17.30;42.60;;;;;;5039299;28;20420;-57
2022/10/24 12:55:30;;;;;;;8.37;8.17;;;17.30;42.70;;;;;;5046016;28;20777;-57
2022/10/24 12:57:56;;;;;;;8.27;8.03;;;17.30;42.70;;;;;;5030755;28;20446;-57
2022/10/24 13:00:32;;;;;;;8.10;7.80;;;17.30;42.60;;;;;;5029728;28;20883;-61
2022/10/24 13:03:27;;;;;;;8.60;8.30;;;17.30;42.70;;;;;;5030558;28;20772;-61